sensor_id;sensor_type;location;lat;lon;timestamp;P1;durP1;ratioP1;P2;durP2;ratioP2
52458;SDS011;38372;52.902;6.024;2022-10-16T00:01:26;8.18;;;1.20;;
52458;SDS011;38372;52.902;6.024;2022-10-16T00:03:54;6.30;;;1.45;;
52458;SDS011;38372;52.902;6.024;2022-10-16T00:06:20;6.32;;;1.65;;
52458;SDS011;38372;52.902;6.024;2022-10-16T00:08:47;5.22;;;1.27;;
52458;SDS011;38372;52.902;6.024;2022-10-16T00:11:16;5.50;;;1.70;;
52458;SDS011;38372;52.902;6.024;2022-10-16T00:13:45;5.07;;;1.40;;
52458;SDS011;38372;52.902;6.024;2022-10-16T00:16:12;3.58;;;1.25;;
52458;SDS011;38372;52.902;6.024;2022-10-16T00:18:40;6.35;;;1.60;;
52458;SDS011;38372;52.902;6.024;2022-10-16T00:21:08;4.05;;;1.40;;
52458;SDS011;38372;52.902;6.024;2022-10-16T00:23:39;5.43;;;1.70;;
52458;SDS011;38372;52.902;6.024;2022-10-16T00:26:10;5.18;;;1.25;;
52458;SDS011;38372;52.902;6.024;2022-10-16T00:28:38;5.03;;;1.50;;
52458;SDS011;38372;52.902;6.024;2022-10-16T00:31:05;7.57;;;1.52;;
52458;SDS011;38372;52.902;6.024;2022-10-16T00:33:33;7.78;;;1.45;;
52458;SDS011;38372;52.902;6.024;2022-10-16T00:36:00;10.27;;;1.70;;
52458;SDS011;38372;52.902;6.024;2022-10-16T00:38:26;5.28;;;2.00;;
52458;SDS011;38372;52.902;6.024;2022-10-16T00:40:52;8.07;;;1.70;;
52458;SDS011;38372;52.902;6.024;2022-10-16T00:46:04;6.18;;;2.13;;
52458;SDS011;38372;52.902;6.024;2022-10-16T00:48:36;4.68;;;1.50;;
52458;SDS011;38372;52.902;6.024;2022-10-16T00:51:01;5.70;;;1.58;;
52458;SDS011;38372;52.902;6.024;2022-10-16T00:53:29;3.28;;;1.20;;
52458;SDS011;38372;52.902;6.024;2022-10-16T00:55:56;6.68;;;1.65;;
52458;SDS011;38372;52.902;6.024;2022-10-16T00:58:21;5.95;;;1.80;;
52458;SDS011;38372;52.902;6.024;2022-10-16T01:00:47;8.90;;;2.88;;
52458;SDS011;38372;52.902;6.024;2022-10-16T01:03:24;3.83;;;1.60;;
52458;SDS011;38372;52.902;6.024;2022-10-16T01:06:00;6.03;;;1.45;;
52458;SDS011;38372;52.902;6.024;2022-10-16T01:08:53;7.95;;;2.20;;
52458;SDS011;38372;52.902;6.024;2022-10-16T01:11:33;6.88;;;1.55;;
52458;SDS011;38372;52.902;6.024;2022-10-16T01:14:32;7.18;;;1.65;;
52458;SDS011;38372;52.902;6.024;2022-10-16T01:17:17;4.00;;;1.33;;
52458;SDS011;38372;52.902;6.024;2022-10-16T01:22:39;3.88;;;1.35;;
52458;SDS011;38372;52.902;6.024;2022-10-16T01:31:47;4.35;;;1.70;;
52458;SDS011;38372;52.902;6.024;2022-10-16T01:34:25;9.00;;;1.70;;
52458;SDS011;38372;52.902;6.024;2022-10-16T01:37:06;6.95;;;1.92;;
52458;SDS011;38372;52.902;6.024;2022-10-16T01:39:37;5.10;;;2.05;;
52458;SDS011;38372;52.902;6.024;2022-10-16T01:42:11;7.18;;;1.90;;
52458;SDS011;38372;52.902;6.024;2022-10-16T01:44:48;3.25;;;1.73;;
52458;SDS011;38372;52.902;6.024;2022-10-16T01:47:17;3.90;;;1.55;;
52458;SDS011;38372;52.902;6.024;2022-10-16T01:52:14;8.90;;;2.25;;
52458;SDS011;38372;52.902;6.024;2022-10-16T01:54:46;5.75;;;1.50;;
52458;SDS011;38372;52.902;6.024;2022-10-16T01:57:14;4.60;;;1.27;;
52458;SDS011;38372;52.902;6.024;2022-10-16T01:59:44;3.85;;;1.80;;
52458;SDS011;38372;52.902;6.024;2022-10-16T02:02:14;7.72;;;2.10;;
52458;SDS011;38372;52.902;6.024;2022-10-16T02:04:46;7.40;;;2.03;;
52458;SDS011;38372;52.902;6.024;2022-10-16T02:07:18;5.18;;;1.70;;
52458;SDS011;38372;52.902;6.024;2022-10-16T02:09:44;6.20;;;1.50;;
52458;SDS011;38372;52.902;6.024;2022-10-16T02:12:21;6.30;;;1.63;;
52458;SDS011;38372;52.902;6.024;2022-10-16T02:14:54;6.25;;;1.50;;
52458;SDS011;38372;52.902;6.024;2022-10-16T02:17:21;5.93;;;1.90;;
52458;SDS011;38372;52.902;6.024;2022-10-16T02:19:47;5.78;;;1.70;;
52458;SDS011;38372;52.902;6.024;2022-10-16T02:22:19;4.57;;;1.63;;
52458;SDS011;38372;52.902;6.024;2022-10-16T02:24:56;3.85;;;1.70;;
52458;SDS011;38372;52.902;6.024;2022-10-16T02:27:52;6.97;;;1.70;;
52458;SDS011;38372;52.902;6.024;2022-10-16T02:32:54;3.30;;;1.50;;
52458;SDS011;38372;52.902;6.024;2022-10-16T02:35:21;5.53;;;1.63;;
52458;SDS011;38372;52.902;6.024;2022-10-16T02:37:49;3.08;;;1.80;;
52458;SDS011;38372;52.902;6.024;2022-10-16T02:40:17;4.03;;;1.50;;
52458;SDS011;38372;52.902;6.024;2022-10-16T02:42:44;4.32;;;1.30;;
52458;SDS011;38372;52.902;6.024;2022-10-16T02:45:15;6.75;;;1.80;;
52458;SDS011;38372;52.902;6.024;2022-10-16T02:47:41;3.33;;;1.77;;
52458;SDS011;38372;52.902;6.024;2022-10-16T02:50:06;2.97;;;1.35;;
52458;SDS011;38372;52.902;6.024;2022-10-16T02:52:33;4.47;;;1.42;;
52458;SDS011;38372;52.902;6.024;2022-10-16T02:54:59;3.83;;;1.70;;
52458;SDS011;38372;52.902;6.024;2022-10-16T02:57:25;4.95;;;1.65;;
52458;SDS011;38372;52.902;6.024;2022-10-16T02:59:51;5.28;;;1.75;;
52458;SDS011;38372;52.902;6.024;2022-10-16T03:02:17;5.72;;;1.38;;
52458;SDS011;38372;52.902;6.024;2022-10-16T03:04:43;3.53;;;1.70;;
52458;SDS011;38372;52.902;6.024;2022-10-16T03:07:09;3.13;;;1.30;;
52458;SDS011;38372;52.902;6.024;2022-10-16T03:09:35;3.40;;;1.63;;
52458;SDS011;38372;52.902;6.024;2022-10-16T03:12:01;4.38;;;1.55;;
52458;SDS011;38372;52.902;6.024;2022-10-16T03:14:27;4.38;;;1.60;;
52458;SDS011;38372;52.902;6.024;2022-10-16T03:16:52;3.55;;;1.50;;
52458;SDS011;38372;52.902;6.024;2022-10-16T03:19:18;3.00;;;1.30;;
52458;SDS011;38372;52.902;6.024;2022-10-16T03:21:44;6.70;;;1.90;;
52458;SDS011;38372;52.902;6.024;2022-10-16T03:24:10;5.30;;;2.17;;
52458;SDS011;38372;52.902;6.024;2022-10-16T03:26:36;2.75;;;1.50;;
52458;SDS011;38372;52.902;6.024;2022-10-16T03:29:02;4.00;;;1.42;;
52458;SDS011;38372;52.902;6.024;2022-10-16T03:31:31;3.85;;;1.55;;
52458;SDS011;38372;52.902;6.024;2022-10-16T03:33:58;5.33;;;1.40;;
52458;SDS011;38372;52.902;6.024;2022-10-16T03:36:23;3.20;;;1.35;;
52458;SDS011;38372;52.902;6.024;2022-10-16T03:38:49;3.78;;;1.70;;
52458;SDS011;38372;52.902;6.024;2022-10-16T03:41:15;4.78;;;2.45;;
52458;SDS011;38372;52.902;6.024;2022-10-16T03:43:41;5.82;;;1.65;;
52458;SDS011;38372;52.902;6.024;2022-10-16T03:46:06;5.10;;;1.70;;
52458;SDS011;38372;52.902;6.024;2022-10-16T03:48:32;6.68;;;1.60;;
52458;SDS011;38372;52.902;6.024;2022-10-16T03:51:00;5.72;;;1.58;;
52458;SDS011;38372;52.902;6.024;2022-10-16T03:53:25;3.58;;;1.65;;
52458;SDS011;38372;52.902;6.024;2022-10-16T03:55:51;4.18;;;1.50;;
52458;SDS011;38372;52.902;6.024;2022-10-16T03:58:17;4.95;;;1.75;;
52458;SDS011;38372;52.902;6.024;2022-10-16T04:00:45;5.40;;;1.40;;
52458;SDS011;38372;52.902;6.024;2022-10-16T04:03:12;4.35;;;1.70;;
52458;SDS011;38372;52.902;6.024;2022-10-16T04:05:38;6.05;;;1.80;;
52458;SDS011;38372;52.902;6.024;2022-10-16T04:08:04;4.82;;;1.85;;
52458;SDS011;38372;52.902;6.024;2022-10-16T04:10:31;3.88;;;1.98;;
52458;SDS011;38372;52.902;6.024;2022-10-16T04:12:57;3.53;;;1.75;;
52458;SDS011;38372;52.902;6.024;2022-10-16T04:15:23;4.00;;;1.88;;
52458;SDS011;38372;52.902;6.024;2022-10-16T04:17:50;6.35;;;2.45;;
52458;SDS011;38372;52.902;6.024;2022-10-16T04:20:16;4.38;;;2.15;;
52458;SDS011;38372;52.902;6.024;2022-10-16T04:22:43;3.53;;;2.20;;
52458;SDS011;38372;52.902;6.024;2022-10-16T04:25:09;6.55;;;2.70;;
52458;SDS011;38372;52.902;6.024;2022-10-16T04:27:36;3.83;;;2.20;;
52458;SDS011;38372;52.902;6.024;2022-10-16T04:30:02;3.83;;;2.17;;
52458;SDS011;38372;52.902;6.024;2022-10-16T04:32:29;6.82;;;2.60;;
52458;SDS011;38372;52.902;6.024;2022-10-16T04:34:55;4.72;;;2.20;;
52458;SDS011;38372;52.902;6.024;2022-10-16T04:37:26;4.00;;;2.40;;
52458;SDS011;38372;52.902;6.024;2022-10-16T04:39:53;3.28;;;2.30;;
52458;SDS011;38372;52.902;6.024;2022-10-16T04:42:20;5.18;;;2.22;;
52458;SDS011;38372;52.902;6.024;2022-10-16T04:44:46;3.42;;;2.38;;
52458;SDS011;38372;52.902;6.024;2022-10-16T04:47:12;8.13;;;2.90;;
52458;SDS011;38372;52.902;6.024;2022-10-16T04:49:38;3.28;;;2.08;;
52458;SDS011;38372;52.902;6.024;2022-10-16T04:52:04;4.35;;;2.60;;
52458;SDS011;38372;52.902;6.024;2022-10-16T04:54:30;3.70;;;2.25;;
52458;SDS011;38372;52.902;6.024;2022-10-16T04:56:56;4.57;;;2.28;;
52458;SDS011;38372;52.902;6.024;2022-10-16T04:59:22;7.35;;;3.03;;
52458;SDS011;38372;52.902;6.024;2022-10-16T05:01:48;5.10;;;2.70;;
52458;SDS011;38372;52.902;6.024;2022-10-16T05:04:15;6.97;;;2.50;;
52458;SDS011;38372;52.902;6.024;2022-10-16T05:06:41;4.35;;;2.55;;
52458;SDS011;38372;52.902;6.024;2022-10-16T05:09:07;8.32;;;2.72;;
52458;SDS011;38372;52.902;6.024;2022-10-16T05:11:34;6.15;;;2.90;;
52458;SDS011;38372;52.902;6.024;2022-10-16T05:14:00;6.82;;;2.70;;
52458;SDS011;38372;52.902;6.024;2022-10-16T05:16:27;4.05;;;2.25;;
52458;SDS011;38372;52.902;6.024;2022-10-16T05:18:54;6.88;;;2.80;;
52458;SDS011;38372;52.902;6.024;2022-10-16T05:21:22;4.68;;;2.50;;
52458;SDS011;38372;52.902;6.024;2022-10-16T05:23:49;5.05;;;2.55;;
52458;SDS011;38372;52.902;6.024;2022-10-16T05:26:15;4.95;;;2.83;;
52458;SDS011;38372;52.902;6.024;2022-10-16T05:28:41;4.60;;;2.40;;
52458;SDS011;38372;52.902;6.024;2022-10-16T05:31:07;9.55;;;2.58;;
52458;SDS011;38372;52.902;6.024;2022-10-16T05:33:34;5.10;;;3.00;;
52458;SDS011;38372;52.902;6.024;2022-10-16T05:36:01;4.43;;;2.80;;
52458;SDS011;38372;52.902;6.024;2022-10-16T05:38:28;4.75;;;2.92;;
52458;SDS011;38372;52.902;6.024;2022-10-16T05:40:54;6.60;;;2.80;;
52458;SDS011;38372;52.902;6.024;2022-10-16T05:43:20;4.75;;;2.20;;
52458;SDS011;38372;52.902;6.024;2022-10-16T05:45:56;6.53;;;3.17;;
52458;SDS011;38372;52.902;6.024;2022-10-16T05:48:23;4.75;;;2.80;;
52458;SDS011;38372;52.902;6.024;2022-10-16T05:50:56;6.85;;;2.80;;
52458;SDS011;38372;52.902;6.024;2022-10-16T05:53:30;5.78;;;3.30;;
52458;SDS011;38372;52.902;6.024;2022-10-16T05:55:57;9.80;;;4.22;;
52458;SDS011;38372;52.902;6.024;2022-10-16T05:58:23;6.05;;;3.17;;
52458;SDS011;38372;52.902;6.024;2022-10-16T06:00:56;7.63;;;3.00;;
52458;SDS011;38372;52.902;6.024;2022-10-16T06:03:27;4.80;;;2.80;;
52458;SDS011;38372;52.902;6.024;2022-10-16T06:05:53;7.00;;;3.20;;
52458;SDS011;38372;52.902;6.024;2022-10-16T06:08:19;6.65;;;2.53;;
52458;SDS011;38372;52.902;6.024;2022-10-16T06:10:46;5.25;;;2.95;;
52458;SDS011;38372;52.902;6.024;2022-10-16T06:13:12;4.80;;;2.80;;
52458;SDS011;38372;52.902;6.024;2022-10-16T06:15:40;6.07;;;3.08;;
52458;SDS011;38372;52.902;6.024;2022-10-16T06:18:07;4.18;;;2.55;;
52458;SDS011;38372;52.902;6.024;2022-10-16T06:20:34;5.38;;;2.50;;
52458;SDS011;38372;52.902;6.024;2022-10-16T06:23:00;3.83;;;2.40;;
52458;SDS011;38372;52.902;6.024;2022-10-16T06:25:26;5.40;;;3.00;;
52458;SDS011;38372;52.902;6.024;2022-10-16T06:27:51;5.72;;;2.22;;
52458;SDS011;38372;52.902;6.024;2022-10-16T06:30:17;7.13;;;2.78;;
52458;SDS011;38372;52.902;6.024;2022-10-16T06:32:43;4.85;;;2.42;;
52458;SDS011;38372;52.902;6.024;2022-10-16T06:35:08;4.57;;;2.50;;
52458;SDS011;38372;52.902;6.024;2022-10-16T06:37:34;3.80;;;2.65;;
52458;SDS011;38372;52.902;6.024;2022-10-16T06:40:00;5.78;;;2.10;;
52458;SDS011;38372;52.902;6.024;2022-10-16T06:42:26;8.00;;;2.25;;
52458;SDS011;38372;52.902;6.024;2022-10-16T06:44:51;4.80;;;2.42;;
52458;SDS011;38372;52.902;6.024;2022-10-16T06:47:17;6.03;;;2.30;;
52458;SDS011;38372;52.902;6.024;2022-10-16T06:49:43;5.95;;;2.47;;
52458;SDS011;38372;52.902;6.024;2022-10-16T06:52:09;5.25;;;2.30;;
52458;SDS011;38372;52.902;6.024;2022-10-16T06:54:34;5.20;;;2.38;;
52458;SDS011;38372;52.902;6.024;2022-10-16T06:57:00;4.28;;;2.08;;
52458;SDS011;38372;52.902;6.024;2022-10-16T06:59:26;6.53;;;2.35;;
52458;SDS011;38372;52.902;6.024;2022-10-16T07:01:52;5.55;;;2.28;;
52458;SDS011;38372;52.902;6.024;2022-10-16T07:04:18;4.75;;;2.10;;
52458;SDS011;38372;52.902;6.024;2022-10-16T07:06:44;4.97;;;2.50;;
52458;SDS011;38372;52.902;6.024;2022-10-16T07:09:10;8.60;;;3.45;;
52458;SDS011;38372;52.902;6.024;2022-10-16T07:11:37;7.70;;;2.50;;
52458;SDS011;38372;52.902;6.024;2022-10-16T07:14:03;8.63;;;2.35;;
52458;SDS011;38372;52.902;6.024;2022-10-16T07:16:30;3.67;;;2.30;;
52458;SDS011;38372;52.902;6.024;2022-10-16T07:18:58;4.32;;;2.53;;
52458;SDS011;38372;52.902;6.024;2022-10-16T07:21:26;4.43;;;2.60;;
52458;SDS011;38372;52.902;6.024;2022-10-16T07:23:57;4.53;;;2.50;;
52458;SDS011;38372;52.902;6.024;2022-10-16T07:26:25;4.20;;;2.40;;
52458;SDS011;38372;52.902;6.024;2022-10-16T07:28:53;4.43;;;2.13;;
52458;SDS011;38372;52.902;6.024;2022-10-16T07:31:20;3.83;;;2.22;;
52458;SDS011;38372;52.902;6.024;2022-10-16T07:33:47;6.15;;;2.75;;
52458;SDS011;38372;52.902;6.024;2022-10-16T07:36:15;5.60;;;2.22;;
52458;SDS011;38372;52.902;6.024;2022-10-16T07:38:43;4.95;;;2.33;;
52458;SDS011;38372;52.902;6.024;2022-10-16T07:41:11;4.70;;;2.60;;
52458;SDS011;38372;52.902;6.024;2022-10-16T07:43:38;6.18;;;1.92;;
52458;SDS011;38372;52.902;6.024;2022-10-16T07:46:04;3.95;;;1.25;;
52458;SDS011;38372;52.902;6.024;2022-10-16T07:48:32;11.90;;;3.65;;
52458;SDS011;38372;52.902;6.024;2022-10-16T07:51:00;3.78;;;1.42;;
52458;SDS011;38372;52.902;6.024;2022-10-16T07:53:28;4.47;;;1.63;;
52458;SDS011;38372;52.902;6.024;2022-10-16T07:55:59;6.60;;;1.30;;
52458;SDS011;38372;52.902;6.024;2022-10-16T07:58:26;6.90;;;1.30;;
52458;SDS011;38372;52.902;6.024;2022-10-16T08:00:53;2.75;;;1.50;;
52458;SDS011;38372;52.902;6.024;2022-10-16T08:03:20;3.70;;;1.40;;
52458;SDS011;38372;52.902;6.024;2022-10-16T08:05:46;2.53;;;1.00;;
52458;SDS011;38372;52.902;6.024;2022-10-16T08:08:13;4.55;;;1.20;;
52458;SDS011;38372;52.902;6.024;2022-10-16T08:10:41;5.40;;;1.08;;
52458;SDS011;38372;52.902;6.024;2022-10-16T08:13:07;4.22;;;1.10;;
52458;SDS011;38372;52.902;6.024;2022-10-16T08:15:35;2.88;;;1.10;;
52458;SDS011;38372;52.902;6.024;2022-10-16T08:18:02;4.20;;;0.98;;
52458;SDS011;38372;52.902;6.024;2022-10-16T08:20:31;3.17;;;1.10;;
52458;SDS011;38372;52.902;6.024;2022-10-16T08:22:58;2.08;;;0.82;;
52458;SDS011;38372;52.902;6.024;2022-10-16T08:25:25;5.03;;;1.23;;
52458;SDS011;38372;52.902;6.024;2022-10-16T08:27:52;4.10;;;1.25;;
52458;SDS011;38372;52.902;6.024;2022-10-16T08:30:19;4.40;;;1.60;;
52458;SDS011;38372;52.902;6.024;2022-10-16T08:32:47;2.20;;;1.23;;
52458;SDS011;38372;52.902;6.024;2022-10-16T08:35:13;3.95;;;1.30;;
52458;SDS011;38372;52.902;6.024;2022-10-16T08:37:40;6.00;;;1.50;;
52458;SDS011;38372;52.902;6.024;2022-10-16T08:40:13;3.45;;;1.13;;
52458;SDS011;38372;52.902;6.024;2022-10-16T08:51:06;6.97;;;1.40;;
52458;SDS011;38372;52.902;6.024;2022-10-16T08:53:41;9.00;;;1.73;;
52458;SDS011;38372;52.902;6.024;2022-10-16T08:56:18;4.65;;;1.05;;
52458;SDS011;38372;52.902;6.024;2022-10-16T08:58:44;3.92;;;1.23;;
52458;SDS011;38372;52.902;6.024;2022-10-16T09:01:13;8.00;;;1.60;;
52458;SDS011;38372;52.902;6.024;2022-10-16T09:06:31;6.43;;;1.60;;
52458;SDS011;38372;52.902;6.024;2022-10-16T09:17:33;8.25;;;2.03;;
52458;SDS011;38372;52.902;6.024;2022-10-16T09:25:42;12.95;;;2.20;;
52458;SDS011;38372;52.902;6.024;2022-10-16T09:28:13;5.57;;;1.48;;
52458;SDS011;38372;52.902;6.024;2022-10-16T09:30:39;14.23;;;1.95;;
52458;SDS011;38372;52.902;6.024;2022-10-16T09:33:05;7.70;;;2.13;;
52458;SDS011;38372;52.902;6.024;2022-10-16T09:35:35;10.82;;;1.95;;
52458;SDS011;38372;52.902;6.024;2022-10-16T09:38:20;11.18;;;1.77;;
52458;SDS011;38372;52.902;6.024;2022-10-16T09:40:49;9.82;;;1.73;;
52458;SDS011;38372;52.902;6.024;2022-10-16T09:46:08;12.60;;;1.77;;
52458;SDS011;38372;52.902;6.024;2022-10-16T09:48:47;8.77;;;1.55;;
52458;SDS011;38372;52.902;6.024;2022-10-16T09:51:34;8.30;;;1.60;;
52458;SDS011;38372;52.902;6.024;2022-10-16T09:54:02;9.82;;;1.77;;
52458;SDS011;38372;52.902;6.024;2022-10-16T09:56:43;11.57;;;2.00;;
52458;SDS011;38372;52.902;6.024;2022-10-16T09:59:15;13.00;;;2.13;;
52458;SDS011;38372;52.902;6.024;2022-10-16T10:01:52;6.88;;;1.20;;
52458;SDS011;38372;52.902;6.024;2022-10-16T10:04:21;7.78;;;1.75;;
52458;SDS011;38372;52.902;6.024;2022-10-16T10:06:53;4.70;;;1.67;;
52458;SDS011;38372;52.902;6.024;2022-10-16T10:09:25;9.90;;;1.60;;
52458;SDS011;38372;52.902;6.024;2022-10-16T10:12:01;10.35;;;1.92;;
52458;SDS011;38372;52.902;6.024;2022-10-16T10:17:10;7.65;;;1.80;;
52458;SDS011;38372;52.902;6.024;2022-10-16T10:19:48;9.73;;;1.88;;
52458;SDS011;38372;52.902;6.024;2022-10-16T10:22:17;11.25;;;2.05;;
52458;SDS011;38372;52.902;6.024;2022-10-16T10:33:27;7.25;;;2.15;;
52458;SDS011;38372;52.902;6.024;2022-10-16T10:38:39;10.43;;;1.83;;
52458;SDS011;38372;52.902;6.024;2022-10-16T10:46:49;9.07;;;1.45;;
52458;SDS011;38372;52.902;6.024;2022-10-16T10:51:55;11.90;;;2.40;;
52458;SDS011;38372;52.902;6.024;2022-10-16T10:57:30;14.32;;;2.40;;
52458;SDS011;38372;52.902;6.024;2022-10-16T11:08:16;9.38;;;2.03;;
52458;SDS011;38372;52.902;6.024;2022-10-16T11:15:45;8.90;;;1.83;;
52458;SDS011;38372;52.902;6.024;2022-10-16T11:18:19;17.35;;;2.60;;
52458;SDS011;38372;52.902;6.024;2022-10-16T11:21:00;6.78;;;1.60;;
52458;SDS011;38372;52.902;6.024;2022-10-16T11:23:34;12.10;;;2.15;;
52458;SDS011;38372;52.902;6.024;2022-10-16T11:26:10;10.40;;;2.13;;
52458;SDS011;38372;52.902;6.024;2022-10-16T11:28:51;9.95;;;1.80;;
52458;SDS011;38372;52.902;6.024;2022-10-16T11:34:22;12.00;;;2.20;;
52458;SDS011;38372;52.902;6.024;2022-10-16T11:37:08;10.55;;;2.00;;
52458;SDS011;38372;52.902;6.024;2022-10-16T11:39:48;13.80;;;2.35;;
52458;SDS011;38372;52.902;6.024;2022-10-16T11:42:21;10.88;;;1.98;;
52458;SDS011;38372;52.902;6.024;2022-10-16T11:47:54;9.18;;;2.17;;
52458;SDS011;38372;52.902;6.024;2022-10-16T11:50:56;11.80;;;1.95;;
52458;SDS011;38372;52.902;6.024;2022-10-16T11:56:19;12.25;;;1.60;;
52458;SDS011;38372;52.902;6.024;2022-10-16T11:58:54;16.23;;;2.70;;
52458;SDS011;38372;52.902;6.024;2022-10-16T12:01:49;15.38;;;1.95;;
52458;SDS011;38372;52.902;6.024;2022-10-16T12:04:25;9.38;;;2.13;;
52458;SDS011;38372;52.902;6.024;2022-10-16T12:07:13;14.88;;;1.90;;
52458;SDS011;38372;52.902;6.024;2022-10-16T12:09:43;9.15;;;1.77;;
52458;SDS011;38372;52.902;6.024;2022-10-16T12:12:37;8.70;;;2.05;;
52458;SDS011;38372;52.902;6.024;2022-10-16T12:15:21;19.38;;;3.05;;
52458;SDS011;38372;52.902;6.024;2022-10-16T12:17:55;18.02;;;2.88;;
52458;SDS011;38372;52.902;6.024;2022-10-16T12:20:23;13.52;;;2.05;;
52458;SDS011;38372;52.902;6.024;2022-10-16T12:30:32;10.57;;;2.38;;
52458;SDS011;38372;52.902;6.024;2022-10-16T12:33:02;12.17;;;2.23;;
52458;SDS011;38372;52.902;6.024;2022-10-16T12:35:45;10.90;;;2.10;;
52458;SDS011;38372;52.902;6.024;2022-10-16T12:38:15;13.07;;;1.80;;
52458;SDS011;38372;52.902;6.024;2022-10-16T12:40:56;13.43;;;2.50;;
52458;SDS011;38372;52.902;6.024;2022-10-16T12:43:38;11.85;;;1.58;;
52458;SDS011;38372;52.902;6.024;2022-10-16T12:48:33;12.27;;;2.33;;
52458;SDS011;38372;52.902;6.024;2022-10-16T12:54:12;8.90;;;1.52;;
52458;SDS011;38372;52.902;6.024;2022-10-16T13:11:17;13.27;;;2.40;;
52458;SDS011;38372;52.902;6.024;2022-10-16T13:16:50;9.48;;;1.77;;
52458;SDS011;38372;52.902;6.024;2022-10-16T13:22:32;10.88;;;1.83;;
52458;SDS011;38372;52.902;6.024;2022-10-16T13:28:05;12.90;;;1.67;;
52458;SDS011;38372;52.902;6.024;2022-10-16T13:30:35;11.00;;;2.38;;
52458;SDS011;38372;52.902;6.024;2022-10-16T13:35:52;11.63;;;2.28;;
52458;SDS011;38372;52.902;6.024;2022-10-16T13:38:21;13.02;;;2.58;;
52458;SDS011;38372;52.902;6.024;2022-10-16T13:40:58;10.45;;;1.83;;
52458;SDS011;38372;52.902;6.024;2022-10-16T13:43:42;14.55;;;1.90;;
52458;SDS011;38372;52.902;6.024;2022-10-16T13:46:18;16.60;;;2.63;;
52458;SDS011;38372;52.902;6.024;2022-10-16T13:48:56;7.63;;;1.40;;
52458;SDS011;38372;52.902;6.024;2022-10-16T13:51:22;10.07;;;1.92;;
52458;SDS011;38372;52.902;6.024;2022-10-16T13:53:48;8.30;;;1.70;;
52458;SDS011;38372;52.902;6.024;2022-10-16T13:56:15;12.57;;;2.10;;
52458;SDS011;38372;52.902;6.024;2022-10-16T14:01:15;9.88;;;1.58;;
52458;SDS011;38372;52.902;6.024;2022-10-16T14:03:49;13.63;;;2.08;;
52458;SDS011;38372;52.902;6.024;2022-10-16T14:06:20;14.15;;;1.83;;
52458;SDS011;38372;52.902;6.024;2022-10-16T14:11:26;18.55;;;3.20;;
52458;SDS011;38372;52.902;6.024;2022-10-16T14:13:52;9.77;;;1.98;;
52458;SDS011;38372;52.902;6.024;2022-10-16T14:16:20;17.10;;;3.15;;
52458;SDS011;38372;52.902;6.024;2022-10-16T14:18:55;16.65;;;2.47;;
52458;SDS011;38372;52.902;6.024;2022-10-16T14:21:21;12.30;;;1.60;;
52458;SDS011;38372;52.902;6.024;2022-10-16T14:23:47;14.35;;;3.03;;
52458;SDS011;38372;52.902;6.024;2022-10-16T14:26:14;7.68;;;1.70;;
52458;SDS011;38372;52.902;6.024;2022-10-16T14:28:43;8.25;;;2.50;;
52458;SDS011;38372;52.902;6.024;2022-10-16T14:31:23;12.63;;;1.85;;
52458;SDS011;38372;52.902;6.024;2022-10-16T14:33:55;10.05;;;2.10;;
52458;SDS011;38372;52.902;6.024;2022-10-16T14:36:21;13.70;;;1.83;;
52458;SDS011;38372;52.902;6.024;2022-10-16T14:38:54;12.85;;;2.00;;
52458;SDS011;38372;52.902;6.024;2022-10-16T14:41:31;14.40;;;3.53;;
52458;SDS011;38372;52.902;6.024;2022-10-16T14:44:09;14.73;;;2.03;;
52458;SDS011;38372;52.902;6.024;2022-10-16T14:46:37;11.10;;;2.00;;
52458;SDS011;38372;52.902;6.024;2022-10-16T14:51:38;12.13;;;2.25;;
52458;SDS011;38372;52.902;6.024;2022-10-16T14:54:14;11.02;;;2.00;;
52458;SDS011;38372;52.902;6.024;2022-10-16T14:56:45;9.38;;;1.75;;
52458;SDS011;38372;52.902;6.024;2022-10-16T14:59:26;8.50;;;2.00;;
52458;SDS011;38372;52.902;6.024;2022-10-16T15:04:40;7.85;;;2.20;;
52458;SDS011;38372;52.902;6.024;2022-10-16T15:07:07;11.85;;;2.38;;
52458;SDS011;38372;52.902;6.024;2022-10-16T15:09:33;9.90;;;1.83;;
52458;SDS011;38372;52.902;6.024;2022-10-16T15:11:59;9.85;;;2.08;;
52458;SDS011;38372;52.902;6.024;2022-10-16T15:14:25;11.80;;;1.92;;
52458;SDS011;38372;52.902;6.024;2022-10-16T15:16:50;14.10;;;2.35;;
52458;SDS011;38372;52.902;6.024;2022-10-16T15:19:16;7.57;;;1.90;;
52458;SDS011;38372;52.902;6.024;2022-10-16T15:21:42;12.50;;;1.90;;
52458;SDS011;38372;52.902;6.024;2022-10-16T15:24:09;9.60;;;1.77;;
52458;SDS011;38372;52.902;6.024;2022-10-16T15:26:38;9.00;;;2.38;;
52458;SDS011;38372;52.902;6.024;2022-10-16T15:29:04;9.13;;;1.80;;
52458;SDS011;38372;52.902;6.024;2022-10-16T15:31:30;29.38;;;3.10;;
52458;SDS011;38372;52.902;6.024;2022-10-16T15:33:56;11.63;;;1.92;;
52458;SDS011;38372;52.902;6.024;2022-10-16T15:36:30;11.25;;;1.90;;
52458;SDS011;38372;52.902;6.024;2022-10-16T15:39:05;15.07;;;1.98;;
52458;SDS011;38372;52.902;6.024;2022-10-16T15:41:51;9.35;;;1.88;;
52458;SDS011;38372;52.902;6.024;2022-10-16T15:44:18;12.55;;;2.78;;
52458;SDS011;38372;52.902;6.024;2022-10-16T15:46:46;10.10;;;2.20;;
52458;SDS011;38372;52.902;6.024;2022-10-16T15:49:13;8.35;;;1.52;;
52458;SDS011;38372;52.902;6.024;2022-10-16T15:51:39;12.50;;;2.15;;
52458;SDS011;38372;52.902;6.024;2022-10-16T15:54:06;11.32;;;1.85;;
52458;SDS011;38372;52.902;6.024;2022-10-16T15:56:33;9.27;;;2.03;;
52458;SDS011;38372;52.902;6.024;2022-10-16T15:59:02;8.40;;;1.85;;
52458;SDS011;38372;52.902;6.024;2022-10-16T16:01:28;13.85;;;1.50;;
52458;SDS011;38372;52.902;6.024;2022-10-16T16:03:56;8.68;;;1.83;;
52458;SDS011;38372;52.902;6.024;2022-10-16T16:06:22;9.60;;;1.35;;
52458;SDS011;38372;52.902;6.024;2022-10-16T16:08:49;13.52;;;2.08;;
52458;SDS011;38372;52.902;6.024;2022-10-16T16:11:16;16.20;;;2.53;;
52458;SDS011;38372;52.902;6.024;2022-10-16T16:13:42;13.00;;;1.73;;
52458;SDS011;38372;52.902;6.024;2022-10-16T16:16:15;13.40;;;2.47;;
52458;SDS011;38372;52.902;6.024;2022-10-16T16:18:42;45.63;;;4.93;;
52458;SDS011;38372;52.902;6.024;2022-10-16T16:21:10;12.60;;;1.95;;
52458;SDS011;38372;52.902;6.024;2022-10-16T16:23:37;18.27;;;2.63;;
52458;SDS011;38372;52.902;6.024;2022-10-16T16:26:20;16.75;;;2.63;;
52458;SDS011;38372;52.902;6.024;2022-10-16T16:28:51;12.80;;;2.08;;
52458;SDS011;38372;52.902;6.024;2022-10-16T16:31:17;17.33;;;2.50;;
52458;SDS011;38372;52.902;6.024;2022-10-16T16:33:43;14.23;;;2.47;;
52458;SDS011;38372;52.902;6.024;2022-10-16T16:36:09;14.23;;;1.98;;
52458;SDS011;38372;52.902;6.024;2022-10-16T16:38:35;13.43;;;2.13;;
52458;SDS011;38372;52.902;6.024;2022-10-16T16:41:11;12.45;;;2.30;;
52458;SDS011;38372;52.902;6.024;2022-10-16T16:43:40;15.33;;;2.87;;
52458;SDS011;38372;52.902;6.024;2022-10-16T16:46:06;10.68;;;1.85;;
52458;SDS011;38372;52.902;6.024;2022-10-16T16:48:32;13.95;;;2.70;;
52458;SDS011;38372;52.902;6.024;2022-10-16T16:51:03;15.30;;;2.28;;
52458;SDS011;38372;52.902;6.024;2022-10-16T16:53:40;14.13;;;4.32;;
52458;SDS011;38372;52.902;6.024;2022-10-16T16:56:08;31.60;;;14.07;;
52458;SDS011;38372;52.902;6.024;2022-10-16T16:58:34;43.03;;;21.55;;
52458;SDS011;38372;52.902;6.024;2022-10-16T17:01:00;28.85;;;9.98;;
52458;SDS011;38372;52.902;6.024;2022-10-16T17:03:27;9.57;;;2.20;;
52458;SDS011;38372;52.902;6.024;2022-10-16T17:06:02;6.32;;;1.95;;
52458;SDS011;38372;52.902;6.024;2022-10-16T17:08:30;11.23;;;1.85;;
52458;SDS011;38372;52.902;6.024;2022-10-16T17:10:57;14.18;;;1.80;;
52458;SDS011;38372;52.902;6.024;2022-10-16T17:13:27;13.20;;;2.47;;
52458;SDS011;38372;52.902;6.024;2022-10-16T17:15:55;10.10;;;2.03;;
52458;SDS011;38372;52.902;6.024;2022-10-16T17:18:22;12.40;;;2.08;;
52458;SDS011;38372;52.902;6.024;2022-10-16T17:20:49;16.98;;;3.33;;